St Columbans, Nebraska
Current Conditions -  °F | °C
As of 3:15 AM on Sunday 21 Dec 2014 (Local Time) from KMLE Reporting Station
Haze Haze  
Wind Chill: 31°   Ceiling: 500
Heat Index: 37°   Visibility: 5mi
Dew Point: 35°   Wind: 7mph
Humidity: 93%   Direction: 150°SSE
Pressure: 29.96"   Gusts: NA
Location:  41.0927°N, 96.0905°W
Report Text: KMLE 210915Z AUTO 15006KT 5SM BR OVC005 03/02 A2996 RMK AO2 T00250015
Loading
Personal Weather Stations






























Interactive Weather Map New forecast layout! Learn more

10-Day Weather Forecast

Advertisements
Track Severe Weather on mobile